KPGA/PGA METAR and TAF weather

Enter ICAO airport designator
Station Type Date Time Source
KPGA METAR 2020/04/07 07:53 UTC NOAA

KPGA 070753Z AUTO 21006KT 10SM CLR 13/M07 A3004 RMK AO2 SLP128 T01331072 TSNO


Station Type Date Time Source
KPGA Decoded METAR 2020/04/07 07:53 UTC NOAA

PAGE MUNICIPAL AIRPORT, AZ, United States (KPGA) 36-56N 111-27W 1307M
Apr 07, 2020 - 03:53 AM EDT / 2020.04.07 0753 UTC
Wind: from the SSW (210 degrees) at 7 MPH (6 KT):0
Visibility: 10 mile(s):0
Sky conditions: clear
Temperature: 55.9 F (13.3 C)
Dew Point: 19.0 F (-7.2 C)
Relative Humidity: 23%
Pressure (altimeter): 30.04 in. Hg (1017 hPa)
ob: KPGA 070753Z AUTO 21006KT 10SM CLR 13/M07 A3004 RMK AO2 SLP128 T01331072 TSNO
cycle: 8

Station Type Date Time Source
KPGA TAF 2020/04/07 06:22 UTC NOAA

TAF KPGA 070520Z 0706/0806 VRB06KT P6SM SCT250

Example: see airport list